sensor_id;sensor_type;location;lat;lon;timestamp;P1;durP1;ratioP1;P2;durP2;ratioP2
9042;SDS011;4556;49.150;8.808;2022-12-07T00:01:59;7.87;;;5.70;;
9042;SDS011;4556;49.150;8.808;2022-12-07T00:04:26;8.27;;;6.27;;
9042;SDS011;4556;49.150;8.808;2022-12-07T00:06:53;7.07;;;5.83;;
9042;SDS011;4556;49.150;8.808;2022-12-07T00:09:21;9.63;;;7.00;;
9042;SDS011;4556;49.150;8.808;2022-12-07T00:11:48;8.63;;;6.53;;
9042;SDS011;4556;49.150;8.808;2022-12-07T00:14:17;9.17;;;6.43;;
9042;SDS011;4556;49.150;8.808;2022-12-07T00:16:44;8.60;;;6.57;;
9042;SDS011;4556;49.150;8.808;2022-12-07T00:19:13;7.60;;;6.60;;
9042;SDS011;4556;49.150;8.808;2022-12-07T00:21:40;7.63;;;6.63;;
9042;SDS011;4556;49.150;8.808;2022-12-07T00:24:09;6.87;;;6.00;;
9042;SDS011;4556;49.150;8.808;2022-12-07T00:26:38;10.70;;;6.93;;
9042;SDS011;4556;49.150;8.808;2022-12-07T00:29:07;7.93;;;6.63;;
9042;SDS011;4556;49.150;8.808;2022-12-07T00:31:37;8.10;;;6.53;;
9042;SDS011;4556;49.150;8.808;2022-12-07T00:34:04;8.53;;;6.93;;
9042;SDS011;4556;49.150;8.808;2022-12-07T00:36:33;6.90;;;6.03;;
9042;SDS011;4556;49.150;8.808;2022-12-07T00:39:00;7.77;;;6.60;;
9042;SDS011;4556;49.150;8.808;2022-12-07T00:41:27;6.87;;;5.80;;
9042;SDS011;4556;49.150;8.808;2022-12-07T00:43:55;8.50;;;6.57;;
9042;SDS011;4556;49.150;8.808;2022-12-07T00:46:22;7.80;;;6.23;;
9042;SDS011;4556;49.150;8.808;2022-12-07T00:48:51;8.37;;;6.47;;
9042;SDS011;4556;49.150;8.808;2022-12-07T00:51:20;10.50;;;7.10;;
9042;SDS011;4556;49.150;8.808;2022-12-07T00:53:50;10.47;;;7.50;;
9042;SDS011;4556;49.150;8.808;2022-12-07T00:56:19;9.23;;;6.43;;
9042;SDS011;4556;49.150;8.808;2022-12-07T00:58:49;8.73;;;6.93;;
9042;SDS011;4556;49.150;8.808;2022-12-07T01:01:17;8.53;;;7.00;;
9042;SDS011;4556;49.150;8.808;2022-12-07T01:03:44;9.07;;;7.27;;
9042;SDS011;4556;49.150;8.808;2022-12-07T01:06:13;7.97;;;6.50;;
9042;SDS011;4556;49.150;8.808;2022-12-07T01:08:41;9.27;;;6.87;;
9042;SDS011;4556;49.150;8.808;2022-12-07T01:11:11;8.03;;;6.53;;
9042;SDS011;4556;49.150;8.808;2022-12-07T01:13:39;9.93;;;7.03;;
9042;SDS011;4556;49.150;8.808;2022-12-07T01:16:06;9.70;;;7.20;;
9042;SDS011;4556;49.150;8.808;2022-12-07T01:18:35;9.13;;;6.93;;
9042;SDS011;4556;49.150;8.808;2022-12-07T01:21:04;9.53;;;7.47;;
9042;SDS011;4556;49.150;8.808;2022-12-07T01:23:32;9.37;;;6.97;;
9042;SDS011;4556;49.150;8.808;2022-12-07T01:26:03;9.20;;;6.57;;
9042;SDS011;4556;49.150;8.808;2022-12-07T01:28:33;8.20;;;7.07;;
9042;SDS011;4556;49.150;8.808;2022-12-07T01:31:02;8.43;;;6.87;;
9042;SDS011;4556;49.150;8.808;2022-12-07T01:33:31;9.90;;;7.33;;
9042;SDS011;4556;49.150;8.808;2022-12-07T01:36:00;9.80;;;7.83;;
9042;SDS011;4556;49.150;8.808;2022-12-07T01:38:29;9.13;;;7.37;;
9042;SDS011;4556;49.150;8.808;2022-12-07T01:40:56;8.57;;;7.07;;
9042;SDS011;4556;49.150;8.808;2022-12-07T01:43:23;9.33;;;7.57;;
9042;SDS011;4556;49.150;8.808;2022-12-07T01:45:54;11.00;;;7.27;;
9042;SDS011;4556;49.150;8.808;2022-12-07T01:48:22;10.07;;;6.97;;
9042;SDS011;4556;49.150;8.808;2022-12-07T01:50:54;10.00;;;8.03;;
9042;SDS011;4556;49.150;8.808;2022-12-07T01:53:24;10.53;;;7.73;;
9042;SDS011;4556;49.150;8.808;2022-12-07T01:55:53;9.17;;;7.60;;
9042;SDS011;4556;49.150;8.808;2022-12-07T01:58:21;9.20;;;7.47;;
9042;SDS011;4556;49.150;8.808;2022-12-07T02:00:49;10.97;;;7.37;;
9042;SDS011;4556;49.150;8.808;2022-12-07T02:03:18;10.70;;;7.73;;
9042;SDS011;4556;49.150;8.808;2022-12-07T02:05:48;11.73;;;8.20;;
9042;SDS011;4556;49.150;8.808;2022-12-07T02:08:16;12.03;;;7.77;;
9042;SDS011;4556;49.150;8.808;2022-12-07T02:10:43;9.67;;;7.63;;
9042;SDS011;4556;49.150;8.808;2022-12-07T02:13:11;8.63;;;7.60;;
9042;SDS011;4556;49.150;8.808;2022-12-07T02:15:46;10.10;;;8.20;;
9042;SDS011;4556;49.150;8.808;2022-12-07T02:18:23;9.00;;;8.10;;
9042;SDS011;4556;49.150;8.808;2022-12-07T02:21:01;11.40;;;8.10;;
9042;SDS011;4556;49.150;8.808;2022-12-07T02:23:48;10.80;;;8.13;;
9042;SDS011;4556;49.150;8.808;2022-12-07T02:26:56;10.77;;;8.20;;
9042;SDS011;4556;49.150;8.808;2022-12-07T02:29:48;10.67;;;8.17;;
9042;SDS011;4556;49.150;8.808;2022-12-07T02:32:21;10.30;;;8.37;;
9042;SDS011;4556;49.150;8.808;2022-12-07T02:34:54;10.53;;;8.43;;
9042;SDS011;4556;49.150;8.808;2022-12-07T02:37:30;11.13;;;8.07;;
9042;SDS011;4556;49.150;8.808;2022-12-07T02:40:05;9.90;;;7.97;;
9042;SDS011;4556;49.150;8.808;2022-12-07T02:42:37;10.00;;;7.97;;
9042;SDS011;4556;49.150;8.808;2022-12-07T02:45:11;9.77;;;7.90;;
9042;SDS011;4556;49.150;8.808;2022-12-07T02:47:41;10.93;;;8.53;;
9042;SDS011;4556;49.150;8.808;2022-12-07T02:50:11;13.90;;;10.33;;
9042;SDS011;4556;49.150;8.808;2022-12-07T02:52:38;12.97;;;9.63;;
9042;SDS011;4556;49.150;8.808;2022-12-07T02:55:05;13.10;;;9.43;;
9042;SDS011;4556;49.150;8.808;2022-12-07T02:57:40;9.87;;;8.13;;
9042;SDS011;4556;49.150;8.808;2022-12-07T03:00:18;12.60;;;8.60;;
9042;SDS011;4556;49.150;8.808;2022-12-07T03:02:50;10.23;;;8.27;;
9042;SDS011;4556;49.150;8.808;2022-12-07T03:05:27;12.97;;;8.80;;
9042;SDS011;4556;49.150;8.808;2022-12-07T03:08:12;11.23;;;8.77;;
9042;SDS011;4556;49.150;8.808;2022-12-07T03:10:48;10.63;;;8.50;;
9042;SDS011;4556;49.150;8.808;2022-12-07T03:13:23;9.67;;;7.97;;
9042;SDS011;4556;49.150;8.808;2022-12-07T03:16:00;12.27;;;9.00;;
9042;SDS011;4556;49.150;8.808;2022-12-07T03:18:31;11.43;;;8.80;;
9042;SDS011;4556;49.150;8.808;2022-12-07T03:21:03;12.80;;;9.87;;
9042;SDS011;4556;49.150;8.808;2022-12-07T03:23:34;13.47;;;10.40;;
9042;SDS011;4556;49.150;8.808;2022-12-07T03:26:04;16.47;;;10.90;;
9042;SDS011;4556;49.150;8.808;2022-12-07T03:28:35;12.17;;;9.33;;
9042;SDS011;4556;49.150;8.808;2022-12-07T03:31:09;11.90;;;8.77;;
9042;SDS011;4556;49.150;8.808;2022-12-07T03:33:42;10.90;;;9.13;;
9042;SDS011;4556;49.150;8.808;2022-12-07T03:36:17;12.73;;;9.77;;
9042;SDS011;4556;49.150;8.808;2022-12-07T03:38:50;12.23;;;9.80;;
9042;SDS011;4556;49.150;8.808;2022-12-07T03:41:22;12.73;;;9.97;;
9042;SDS011;4556;49.150;8.808;2022-12-07T03:43:52;12.40;;;9.97;;
9042;SDS011;4556;49.150;8.808;2022-12-07T03:46:24;15.23;;;9.43;;
9042;SDS011;4556;49.150;8.808;2022-12-07T03:49:02;12.60;;;9.30;;
9042;SDS011;4556;49.150;8.808;2022-12-07T03:51:37;11.70;;;9.30;;
9042;SDS011;4556;49.150;8.808;2022-12-07T03:54:10;12.73;;;9.73;;
9042;SDS011;4556;49.150;8.808;2022-12-07T03:56:41;13.87;;;9.33;;
9042;SDS011;4556;49.150;8.808;2022-12-07T03:59:10;10.80;;;9.10;;
9042;SDS011;4556;49.150;8.808;2022-12-07T04:01:42;12.93;;;9.40;;
9042;SDS011;4556;49.150;8.808;2022-12-07T04:04:09;16.20;;;10.17;;
9042;SDS011;4556;49.150;8.808;2022-12-07T04:06:36;11.37;;;9.27;;
9042;SDS011;4556;49.150;8.808;2022-12-07T04:09:03;12.27;;;9.10;;
9042;SDS011;4556;49.150;8.808;2022-12-07T04:11:30;14.77;;;9.57;;
9042;SDS011;4556;49.150;8.808;2022-12-07T04:13:57;12.50;;;8.83;;
9042;SDS011;4556;49.150;8.808;2022-12-07T04:16:43;11.87;;;9.30;;
9042;SDS011;4556;49.150;8.808;2022-12-07T04:19:12;13.40;;;9.60;;
9042;SDS011;4556;49.150;8.808;2022-12-07T04:21:39;12.53;;;9.67;;
9042;SDS011;4556;49.150;8.808;2022-12-07T04:24:06;11.77;;;9.43;;
9042;SDS011;4556;49.150;8.808;2022-12-07T04:26:33;14.13;;;10.50;;
9042;SDS011;4556;49.150;8.808;2022-12-07T04:29:00;12.90;;;9.70;;
9042;SDS011;4556;49.150;8.808;2022-12-07T04:31:27;12.00;;;9.50;;
9042;SDS011;4556;49.150;8.808;2022-12-07T04:33:56;14.47;;;10.47;;
9042;SDS011;4556;49.150;8.808;2022-12-07T04:36:23;16.77;;;12.03;;
9042;SDS011;4556;49.150;8.808;2022-12-07T04:38:49;17.80;;;13.00;;
9042;SDS011;4556;49.150;8.808;2022-12-07T04:41:19;16.53;;;12.63;;
9042;SDS011;4556;49.150;8.808;2022-12-07T04:43:52;18.73;;;13.77;;
9042;SDS011;4556;49.150;8.808;2022-12-07T04:46:19;17.50;;;12.70;;
9042;SDS011;4556;49.150;8.808;2022-12-07T04:48:46;22.07;;;15.03;;
9042;SDS011;4556;49.150;8.808;2022-12-07T04:51:14;21.57;;;14.90;;
9042;SDS011;4556;49.150;8.808;2022-12-07T04:53:44;18.23;;;12.23;;
9042;SDS011;4556;49.150;8.808;2022-12-07T04:56:11;17.43;;;12.33;;
9042;SDS011;4556;49.150;8.808;2022-12-07T04:58:38;15.73;;;11.43;;
9042;SDS011;4556;49.150;8.808;2022-12-07T05:01:05;16.67;;;11.40;;
9042;SDS011;4556;49.150;8.808;2022-12-07T05:03:32;15.33;;;11.77;;
9042;SDS011;4556;49.150;8.808;2022-12-07T05:06:02;15.10;;;11.80;;
9042;SDS011;4556;49.150;8.808;2022-12-07T05:08:32;15.77;;;10.93;;
9042;SDS011;4556;49.150;8.808;2022-12-07T05:11:00;14.10;;;11.57;;
9042;SDS011;4556;49.150;8.808;2022-12-07T05:13:27;14.17;;;10.80;;
9042;SDS011;4556;49.150;8.808;2022-12-07T05:15:54;14.97;;;10.97;;
9042;SDS011;4556;49.150;8.808;2022-12-07T05:18:21;13.33;;;10.20;;
9042;SDS011;4556;49.150;8.808;2022-12-07T05:20:48;15.57;;;10.33;;
9042;SDS011;4556;49.150;8.808;2022-12-07T05:23:16;13.17;;;9.50;;
9042;SDS011;4556;49.150;8.808;2022-12-07T05:25:44;13.17;;;11.00;;
9042;SDS011;4556;49.150;8.808;2022-12-07T05:28:12;13.43;;;10.17;;
9042;SDS011;4556;49.150;8.808;2022-12-07T05:30:39;14.50;;;10.93;;
9042;SDS011;4556;49.150;8.808;2022-12-07T05:33:06;14.10;;;9.97;;
9042;SDS011;4556;49.150;8.808;2022-12-07T05:35:33;13.03;;;10.20;;
9042;SDS011;4556;49.150;8.808;2022-12-07T05:38:00;12.57;;;9.77;;
9042;SDS011;4556;49.150;8.808;2022-12-07T05:40:27;14.00;;;10.83;;
9042;SDS011;4556;49.150;8.808;2022-12-07T05:42:55;13.20;;;9.90;;
9042;SDS011;4556;49.150;8.808;2022-12-07T05:45:21;14.73;;;10.47;;
9042;SDS011;4556;49.150;8.808;2022-12-07T05:47:48;14.30;;;10.30;;
9042;SDS011;4556;49.150;8.808;2022-12-07T05:50:15;12.07;;;10.13;;
9042;SDS011;4556;49.150;8.808;2022-12-07T05:52:42;13.27;;;10.47;;
9042;SDS011;4556;49.150;8.808;2022-12-07T05:55:09;12.20;;;10.03;;
9042;SDS011;4556;49.150;8.808;2022-12-07T05:57:36;13.47;;;10.43;;
9042;SDS011;4556;49.150;8.808;2022-12-07T06:00:05;15.30;;;10.07;;
9042;SDS011;4556;49.150;8.808;2022-12-07T06:02:31;13.40;;;10.33;;
9042;SDS011;4556;49.150;8.808;2022-12-07T06:04:58;14.83;;;10.90;;
9042;SDS011;4556;49.150;8.808;2022-12-07T06:07:25;15.10;;;11.23;;
9042;SDS011;4556;49.150;8.808;2022-12-07T06:09:52;15.10;;;10.33;;
9042;SDS011;4556;49.150;8.808;2022-12-07T06:12:19;14.27;;;10.37;;
9042;SDS011;4556;49.150;8.808;2022-12-07T06:15:00;13.27;;;10.50;;
9042;SDS011;4556;49.150;8.808;2022-12-07T06:17:29;14.70;;;10.43;;
9042;SDS011;4556;49.150;8.808;2022-12-07T06:19:56;14.13;;;10.27;;
9042;SDS011;4556;49.150;8.808;2022-12-07T06:22:23;14.27;;;10.20;;
9042;SDS011;4556;49.150;8.808;2022-12-07T06:24:50;14.63;;;10.53;;
9042;SDS011;4556;49.150;8.808;2022-12-07T06:27:16;12.97;;;10.50;;
9042;SDS011;4556;49.150;8.808;2022-12-07T06:29:43;13.70;;;10.10;;
9042;SDS011;4556;49.150;8.808;2022-12-07T06:32:10;12.77;;;9.53;;
9042;SDS011;4556;49.150;8.808;2022-12-07T06:34:39;12.40;;;9.73;;
9042;SDS011;4556;49.150;8.808;2022-12-07T06:37:06;13.87;;;9.67;;
9042;SDS011;4556;49.150;8.808;2022-12-07T06:39:33;12.77;;;9.93;;
9042;SDS011;4556;49.150;8.808;2022-12-07T06:41:59;13.30;;;10.07;;
9042;SDS011;4556;49.150;8.808;2022-12-07T06:44:26;11.73;;;9.37;;
9042;SDS011;4556;49.150;8.808;2022-12-07T06:46:53;11.73;;;9.83;;
9042;SDS011;4556;49.150;8.808;2022-12-07T06:49:21;16.30;;;9.30;;
9042;SDS011;4556;49.150;8.808;2022-12-07T06:51:49;13.33;;;9.97;;
9042;SDS011;4556;49.150;8.808;2022-12-07T06:54:17;11.60;;;9.30;;
9042;SDS011;4556;49.150;8.808;2022-12-07T06:56:43;14.53;;;9.90;;
9042;SDS011;4556;49.150;8.808;2022-12-07T06:59:11;10.93;;;8.90;;
9042;SDS011;4556;49.150;8.808;2022-12-07T07:01:38;11.57;;;8.93;;
9042;SDS011;4556;49.150;8.808;2022-12-07T07:04:05;11.93;;;9.07;;
9042;SDS011;4556;49.150;8.808;2022-12-07T07:06:32;12.70;;;9.07;;
9042;SDS011;4556;49.150;8.808;2022-12-07T07:09:01;15.07;;;10.00;;
9042;SDS011;4556;49.150;8.808;2022-12-07T07:11:28;12.50;;;9.67;;
9042;SDS011;4556;49.150;8.808;2022-12-07T07:13:55;15.17;;;10.93;;
9042;SDS011;4556;49.150;8.808;2022-12-07T07:16:27;12.70;;;9.77;;
9042;SDS011;4556;49.150;8.808;2022-12-07T07:18:54;12.47;;;9.83;;
9042;SDS011;4556;49.150;8.808;2022-12-07T07:21:20;13.43;;;9.97;;
9042;SDS011;4556;49.150;8.808;2022-12-07T07:23:47;12.43;;;9.30;;
9042;SDS011;4556;49.150;8.808;2022-12-07T07:26:18;13.23;;;9.33;;
9042;SDS011;4556;49.150;8.808;2022-12-07T07:28:45;13.20;;;9.93;;
9042;SDS011;4556;49.150;8.808;2022-12-07T07:31:12;12.40;;;9.27;;
9042;SDS011;4556;49.150;8.808;2022-12-07T07:33:39;13.40;;;10.03;;
9042;SDS011;4556;49.150;8.808;2022-12-07T07:36:06;13.57;;;9.67;;
9042;SDS011;4556;49.150;8.808;2022-12-07T07:38:33;13.40;;;10.10;;
9042;SDS011;4556;49.150;8.808;2022-12-07T07:41:00;12.83;;;9.80;;
9042;SDS011;4556;49.150;8.808;2022-12-07T07:43:29;13.47;;;9.70;;
9042;SDS011;4556;49.150;8.808;2022-12-07T07:45:56;12.97;;;9.63;;
9042;SDS011;4556;49.150;8.808;2022-12-07T07:48:23;13.73;;;9.73;;
9042;SDS011;4556;49.150;8.808;2022-12-07T07:50:50;15.03;;;10.33;;
9042;SDS011;4556;49.150;8.808;2022-12-07T07:53:17;12.37;;;9.70;;
9042;SDS011;4556;49.150;8.808;2022-12-07T07:55:49;16.90;;;10.20;;
9042;SDS011;4556;49.150;8.808;2022-12-07T07:58:18;14.30;;;11.67;;
9042;SDS011;4556;49.150;8.808;2022-12-07T08:00:46;14.70;;;11.50;;
9042;SDS011;4556;49.150;8.808;2022-12-07T08:03:13;15.87;;;11.60;;
9042;SDS011;4556;49.150;8.808;2022-12-07T08:05:40;12.87;;;10.83;;
9042;SDS011;4556;49.150;8.808;2022-12-07T08:08:07;14.23;;;10.90;;
9042;SDS011;4556;49.150;8.808;2022-12-07T08:10:34;14.27;;;10.53;;
9042;SDS011;4556;49.150;8.808;2022-12-07T08:13:02;11.10;;;8.80;;
9042;SDS011;4556;49.150;8.808;2022-12-07T08:15:40;19.97;;;10.27;;
9042;SDS011;4556;49.150;8.808;2022-12-07T08:18:10;12.70;;;9.43;;
9042;SDS011;4556;49.150;8.808;2022-12-07T08:20:39;11.27;;;9.33;;
9042;SDS011;4556;49.150;8.808;2022-12-07T08:23:07;11.60;;;9.53;;
9042;SDS011;4556;49.150;8.808;2022-12-07T08:25:35;14.30;;;9.90;;
9042;SDS011;4556;49.150;8.808;2022-12-07T08:28:02;12.67;;;8.87;;
9042;SDS011;4556;49.150;8.808;2022-12-07T08:30:30;11.77;;;8.47;;
9042;SDS011;4556;49.150;8.808;2022-12-07T08:32:57;11.43;;;8.67;;
9042;SDS011;4556;49.150;8.808;2022-12-07T08:35:25;12.33;;;8.90;;
9042;SDS011;4556;49.150;8.808;2022-12-07T08:37:52;11.80;;;8.90;;
9042;SDS011;4556;49.150;8.808;2022-12-07T08:40:19;13.57;;;9.10;;
9042;SDS011;4556;49.150;8.808;2022-12-07T08:42:48;11.83;;;9.17;;
9042;SDS011;4556;49.150;8.808;2022-12-07T08:45:16;13.43;;;9.13;;
9042;SDS011;4556;49.150;8.808;2022-12-07T08:47:46;12.37;;;9.13;;
9042;SDS011;4556;49.150;8.808;2022-12-07T08:50:16;12.67;;;8.90;;
9042;SDS011;4556;49.150;8.808;2022-12-07T08:52:45;11.37;;;8.83;;
9042;SDS011;4556;49.150;8.808;2022-12-07T08:55:16;11.93;;;9.20;;
9042;SDS011;4556;49.150;8.808;2022-12-07T08:57:44;12.53;;;8.70;;
9042;SDS011;4556;49.150;8.808;2022-12-07T09:00:12;10.43;;;8.30;;
9042;SDS011;4556;49.150;8.808;2022-12-07T09:02:42;11.30;;;8.07;;
9042;SDS011;4556;49.150;8.808;2022-12-07T09:05:10;11.97;;;8.63;;
9042;SDS011;4556;49.150;8.808;2022-12-07T09:07:39;12.60;;;8.23;;
9042;SDS011;4556;49.150;8.808;2022-12-07T09:10:10;12.77;;;8.97;;
9042;SDS011;4556;49.150;8.808;2022-12-07T09:12:37;10.63;;;8.43;;
9042;SDS011;4556;49.150;8.808;2022-12-07T09:15:05;11.30;;;8.33;;
9042;SDS011;4556;49.150;8.808;2022-12-07T09:17:33;11.30;;;8.40;;
9042;SDS011;4556;49.150;8.808;2022-12-07T09:20:04;11.43;;;8.63;;
9042;SDS011;4556;49.150;8.808;2022-12-07T09:22:32;11.67;;;8.03;;
9042;SDS011;4556;49.150;8.808;2022-12-07T09:24:59;10.43;;;7.90;;
9042;SDS011;4556;49.150;8.808;2022-12-07T09:27:28;11.53;;;8.63;;
9042;SDS011;4556;49.150;8.808;2022-12-07T09:29:55;10.13;;;7.93;;
9042;SDS011;4556;49.150;8.808;2022-12-07T09:32:22;10.70;;;8.20;;
9042;SDS011;4556;49.150;8.808;2022-12-07T09:34:49;11.20;;;7.60;;
9042;SDS011;4556;49.150;8.808;2022-12-07T09:37:16;10.87;;;7.93;;
9042;SDS011;4556;49.150;8.808;2022-12-07T09:39:43;12.07;;;7.73;;
9042;SDS011;4556;49.150;8.808;2022-12-07T09:42:11;10.23;;;7.73;;
9042;SDS011;4556;49.150;8.808;2022-12-07T09:44:54;12.60;;;7.97;;
9042;SDS011;4556;49.150;8.808;2022-12-07T09:47:21;11.03;;;8.37;;
9042;SDS011;4556;49.150;8.808;2022-12-07T09:49:48;8.60;;;7.00;;
9042;SDS011;4556;49.150;8.808;2022-12-07T09:52:17;9.77;;;7.77;;
9042;SDS011;4556;49.150;8.808;2022-12-07T09:54:48;10.27;;;8.30;;
9042;SDS011;4556;49.150;8.808;2022-12-07T09:57:17;9.67;;;7.20;;
9042;SDS011;4556;49.150;8.808;2022-12-07T09:59:46;10.97;;;7.40;;
9042;SDS011;4556;49.150;8.808;2022-12-07T10:02:21;10.50;;;7.67;;
9042;SDS011;4556;49.150;8.808;2022-12-07T10:04:52;9.50;;;7.70;;
9042;SDS011;4556;49.150;8.808;2022-12-07T10:07:20;15.43;;;9.07;;
9042;SDS011;4556;49.150;8.808;2022-12-07T10:09:47;9.83;;;7.57;;
9042;SDS011;4556;49.150;8.808;2022-12-07T10:12:14;10.73;;;7.67;;
9042;SDS011;4556;49.150;8.808;2022-12-07T10:14:52;11.90;;;7.73;;
9042;SDS011;4556;49.150;8.808;2022-12-07T10:17:30;10.53;;;8.27;;
9042;SDS011;4556;49.150;8.808;2022-12-07T10:20:13;11.40;;;8.13;;
9042;SDS011;4556;49.150;8.808;2022-12-07T10:22:56;12.20;;;8.40;;
9042;SDS011;4556;49.150;8.808;2022-12-07T10:25:30;11.77;;;8.40;;
9042;SDS011;4556;49.150;8.808;2022-12-07T10:27:59;11.37;;;8.20;;
9042;SDS011;4556;49.150;8.808;2022-12-07T10:30:28;10.83;;;8.60;;
9042;SDS011;4556;49.150;8.808;2022-12-07T10:32:57;13.63;;;8.80;;
9042;SDS011;4556;49.150;8.808;2022-12-07T10:35:28;10.83;;;8.63;;
9042;SDS011;4556;49.150;8.808;2022-12-07T10:37:57;13.37;;;9.70;;
9042;SDS011;4556;49.150;8.808;2022-12-07T10:40:27;13.00;;;9.30;;
9042;SDS011;4556;49.150;8.808;2022-12-07T10:43:03;11.57;;;8.70;;
9042;SDS011;4556;49.150;8.808;2022-12-07T10:45:32;12.33;;;8.50;;
9042;SDS011;4556;49.150;8.808;2022-12-07T10:48:04;13.10;;;8.50;;
9042;SDS011;4556;49.150;8.808;2022-12-07T10:50:42;11.30;;;8.60;;
9042;SDS011;4556;49.150;8.808;2022-12-07T10:53:28;14.13;;;9.17;;
9042;SDS011;4556;49.150;8.808;2022-12-07T10:56:11;12.17;;;8.73;;
9042;SDS011;4556;49.150;8.808;2022-12-07T10:59:00;16.83;;;9.77;;
9042;SDS011;4556;49.150;8.808;2022-12-07T11:01:38;13.63;;;9.20;;
9042;SDS011;4556;49.150;8.808;2022-12-07T11:07:08;12.47;;;8.93;;
9042;SDS011;4556;49.150;8.808;2022-12-07T11:09:44;11.93;;;8.90;;
9042;SDS011;4556;49.150;8.808;2022-12-07T11:12:20;12.13;;;9.13;;
9042;SDS011;4556;49.150;8.808;2022-12-07T11:14:56;11.90;;;9.00;;
9042;SDS011;4556;49.150;8.808;2022-12-07T11:17:31;12.40;;;9.33;;
9042;SDS011;4556;49.150;8.808;2022-12-07T11:20:04;11.37;;;9.53;;
9042;SDS011;4556;49.150;8.808;2022-12-07T11:22:48;12.53;;;9.10;;
9042;SDS011;4556;49.150;8.808;2022-12-07T11:25:23;13.73;;;10.13;;
9042;SDS011;4556;49.150;8.808;2022-12-07T11:28:02;14.90;;;11.07;;
9042;SDS011;4556;49.150;8.808;2022-12-07T11:30:51;15.47;;;12.43;;
9042;SDS011;4556;49.150;8.808;2022-12-07T11:33:27;15.00;;;11.47;;
9042;SDS011;4556;49.150;8.808;2022-12-07T11:36:04;16.40;;;11.33;;
9042;SDS011;4556;49.150;8.808;2022-12-07T11:38:44;14.90;;;11.40;;
9042;SDS011;4556;49.150;8.808;2022-12-07T11:41:15;14.10;;;10.00;;
9042;SDS011;4556;49.150;8.808;2022-12-07T11:43:53;12.70;;;9.43;;
9042;SDS011;4556;49.150;8.808;2022-12-07T11:46:25;14.30;;;10.50;;
9042;SDS011;4556;49.150;8.808;2022-12-07T11:49:02;14.17;;;10.93;;
9042;SDS011;4556;49.150;8.808;2022-12-07T11:51:37;14.77;;;10.63;;
9042;SDS011;4556;49.150;8.808;2022-12-07T11:54:11;14.57;;;10.00;;
9042;SDS011;4556;49.150;8.808;2022-12-07T11:56:41;12.57;;;9.50;;
9042;SDS011;4556;49.150;8.808;2022-12-07T11:59:11;12.93;;;9.27;;
9042;SDS011;4556;49.150;8.808;2022-12-07T12:01:47;16.43;;;11.10;;
9042;SDS011;4556;49.150;8.808;2022-12-07T12:04:23;16.07;;;12.00;;
9042;SDS011;4556;49.150;8.808;2022-12-07T12:06:57;17.57;;;11.50;;
9042;SDS011;4556;49.150;8.808;2022-12-07T12:09:25;13.30;;;9.70;;
9042;SDS011;4556;49.150;8.808;2022-12-07T12:12:07;13.13;;;9.63;;
9042;SDS011;4556;49.150;8.808;2022-12-07T12:14:57;13.70;;;10.40;;
9042;SDS011;4556;49.150;8.808;2022-12-07T12:17:41;16.60;;;10.80;;
9042;SDS011;4556;49.150;8.808;2022-12-07T12:20:20;13.57;;;9.53;;
9042;SDS011;4556;49.150;8.808;2022-12-07T12:22:55;12.33;;;8.87;;
9042;SDS011;4556;49.150;8.808;2022-12-07T12:25:27;12.80;;;9.17;;
9042;SDS011;4556;49.150;8.808;2022-12-07T12:27:56;13.70;;;9.30;;
9042;SDS011;4556;49.150;8.808;2022-12-07T12:30:32;12.07;;;9.10;;
9042;SDS011;4556;49.150;8.808;2022-12-07T12:33:02;13.57;;;9.47;;
9042;SDS011;4556;49.150;8.808;2022-12-07T12:35:32;11.57;;;8.90;;
9042;SDS011;4556;49.150;8.808;2022-12-07T12:38:26;11.33;;;8.40;;
9042;SDS011;4556;49.150;8.808;2022-12-07T12:40:58;11.13;;;8.57;;
9042;SDS011;4556;49.150;8.808;2022-12-07T12:43:48;11.50;;;8.57;;
9042;SDS011;4556;49.150;8.808;2022-12-07T12:46:36;13.47;;;9.23;;
9042;SDS011;4556;49.150;8.808;2022-12-07T12:55:20;10.50;;;8.03;;
9042;SDS011;4556;49.150;8.808;2022-12-07T13:07:13;14.00;;;9.80;;
9042;SDS011;4556;49.150;8.808;2022-12-07T13:10:24;14.87;;;10.23;;
9042;SDS011;4556;49.150;8.808;2022-12-07T13:13:02;14.63;;;9.53;;
9042;SDS011;4556;49.150;8.808;2022-12-07T13:15:31;13.07;;;9.57;;
9042;SDS011;4556;49.150;8.808;2022-12-07T13:18:00;12.20;;;9.03;;
9042;SDS011;4556;49.150;8.808;2022-12-07T13:20:48;15.10;;;10.30;;
9042;SDS011;4556;49.150;8.808;2022-12-07T13:23:18;12.37;;;9.57;;
9042;SDS011;4556;49.150;8.808;2022-12-07T13:25:53;11.87;;;8.57;;
9042;SDS011;4556;49.150;8.808;2022-12-07T13:28:25;11.67;;;8.20;;
9042;SDS011;4556;49.150;8.808;2022-12-07T13:31:00;12.20;;;8.63;;
9042;SDS011;4556;49.150;8.808;2022-12-07T13:33:35;12.53;;;8.80;;
9042;SDS011;4556;49.150;8.808;2022-12-07T13:36:02;11.47;;;9.00;;
9042;SDS011;4556;49.150;8.808;2022-12-07T13:38:30;13.07;;;8.47;;
9042;SDS011;4556;49.150;8.808;2022-12-07T13:41:02;12.10;;;8.27;;
9042;SDS011;4556;49.150;8.808;2022-12-07T13:43:52;11.77;;;8.70;;
9042;SDS011;4556;49.150;8.808;2022-12-07T13:46:25;12.77;;;9.13;;
9042;SDS011;4556;49.150;8.808;2022-12-07T13:49:00;12.33;;;8.73;;
9042;SDS011;4556;49.150;8.808;2022-12-07T13:51:28;11.47;;;8.80;;
9042;SDS011;4556;49.150;8.808;2022-12-07T13:54:01;11.37;;;8.93;;
9042;SDS011;4556;49.150;8.808;2022-12-07T13:56:37;11.30;;;8.77;;
9042;SDS011;4556;49.150;8.808;2022-12-07T13:59:07;12.97;;;8.67;;
9042;SDS011;4556;49.150;8.808;2022-12-07T14:01:39;12.13;;;9.00;;
9042;SDS011;4556;49.150;8.808;2022-12-07T14:04:16;13.27;;;9.03;;
9042;SDS011;4556;49.150;8.808;2022-12-07T14:06:53;13.53;;;8.60;;
9042;SDS011;4556;49.150;8.808;2022-12-07T14:09:23;12.90;;;9.27;;
9042;SDS011;4556;49.150;8.808;2022-12-07T14:11:53;11.33;;;9.10;;
9042;SDS011;4556;49.150;8.808;2022-12-07T14:14:22;13.37;;;9.60;;
9042;SDS011;4556;49.150;8.808;2022-12-07T14:16:55;13.30;;;9.90;;
9042;SDS011;4556;49.150;8.808;2022-12-07T14:22:22;13.97;;;9.90;;
9042;SDS011;4556;49.150;8.808;2022-12-07T14:24:58;14.37;;;10.10;;
9042;SDS011;4556;49.150;8.808;2022-12-07T14:27:31;15.10;;;10.27;;
9042;SDS011;4556;49.150;8.808;2022-12-07T14:30:00;16.07;;;10.83;;
9042;SDS011;4556;49.150;8.808;2022-12-07T14:32:28;13.47;;;10.70;;
9042;SDS011;4556;49.150;8.808;2022-12-07T14:34:57;17.37;;;11.40;;
9042;SDS011;4556;49.150;8.808;2022-12-07T14:37:26;17.80;;;12.53;;
9042;SDS011;4556;49.150;8.808;2022-12-07T14:39:54;16.73;;;10.93;;
9042;SDS011;4556;49.150;8.808;2022-12-07T14:42:21;14.87;;;10.63;;
9042;SDS011;4556;49.150;8.808;2022-12-07T14:44:52;16.27;;;11.73;;
9042;SDS011;4556;49.150;8.808;2022-12-07T14:47:19;14.53;;;11.13;;
9042;SDS011;4556;49.150;8.808;2022-12-07T14:49:46;15.33;;;11.10;;
9042;SDS011;4556;49.150;8.808;2022-12-07T14:52:15;14.43;;;11.20;;
9042;SDS011;4556;49.150;8.808;2022-12-07T14:54:44;17.37;;;11.73;;
9042;SDS011;4556;49.150;8.808;2022-12-07T14:57:11;15.43;;;11.60;;
9042;SDS011;4556;49.150;8.808;2022-12-07T14:59:38;14.90;;;11.67;;
9042;SDS011;4556;49.150;8.808;2022-12-07T15:02:06;19.63;;;12.40;;
9042;SDS011;4556;49.150;8.808;2022-12-07T15:04:36;17.73;;;12.33;;
9042;SDS011;4556;49.150;8.808;2022-12-07T15:07:04;18.30;;;13.40;;
9042;SDS011;4556;49.150;8.808;2022-12-07T15:09:35;20.70;;;12.87;;
9042;SDS011;4556;49.150;8.808;2022-12-07T15:12:02;18.70;;;13.03;;
9042;SDS011;4556;49.150;8.808;2022-12-07T15:14:29;17.57;;;11.53;;
9042;SDS011;4556;49.150;8.808;2022-12-07T15:16:56;13.30;;;10.20;;
9042;SDS011;4556;49.150;8.808;2022-12-07T15:19:26;18.87;;;12.00;;
9042;SDS011;4556;49.150;8.808;2022-12-07T15:21:53;15.53;;;11.40;;
9042;SDS011;4556;49.150;8.808;2022-12-07T15:24:20;17.27;;;11.77;;
9042;SDS011;4556;49.150;8.808;2022-12-07T15:26:49;20.53;;;11.67;;
9042;SDS011;4556;49.150;8.808;2022-12-07T15:29:16;14.60;;;10.47;;
9042;SDS011;4556;49.150;8.808;2022-12-07T15:31:43;13.70;;;10.13;;
9042;SDS011;4556;49.150;8.808;2022-12-07T15:34:10;14.60;;;10.27;;
9042;SDS011;4556;49.150;8.808;2022-12-07T15:36:39;15.20;;;10.27;;
9042;SDS011;4556;49.150;8.808;2022-12-07T15:39:05;15.53;;;9.53;;
9042;SDS011;4556;49.150;8.808;2022-12-07T15:41:33;14.97;;;10.47;;
9042;SDS011;4556;49.150;8.808;2022-12-07T15:44:01;14.53;;;10.13;;